createdAt,value
2022-12-24T00:00:27.262Z,2.60
2022-12-24T00:01:27.149Z,3.90
2022-12-24T00:02:27.242Z,3.60
2022-12-24T00:03:27.276Z,2.90
2022-12-24T00:04:27.098Z,3.40
2022-12-24T00:05:27.088Z,3.90
2022-12-24T00:06:27.055Z,3.30
2022-12-24T00:07:27.025Z,3.80
2022-12-24T00:08:27.007Z,3.30
2022-12-24T00:09:26.984Z,3.60
2022-12-24T00:10:26.958Z,3.80
2022-12-24T00:11:26.939Z,3.50
2022-12-24T00:12:26.914Z,3.60
2022-12-24T00:13:26.902Z,3.90
2022-12-24T00:14:26.876Z,4.00
2022-12-24T00:15:26.862Z,4.30
2022-12-24T00:16:26.909Z,3.90
2022-12-24T00:17:26.814Z,3.60
2022-12-24T00:18:26.800Z,3.50
2022-12-24T00:19:26.772Z,3.70
2022-12-24T00:20:26.755Z,3.90
2022-12-24T00:21:26.770Z,3.80
2022-12-24T00:22:26.705Z,3.90
2022-12-24T00:23:26.687Z,3.90
2022-12-24T00:24:26.659Z,4.00
2022-12-24T00:25:26.677Z,3.90
2022-12-24T00:26:26.629Z,3.90
2022-12-24T00:27:26.606Z,3.80
2022-12-24T00:28:26.595Z,4.00
2022-12-24T00:29:26.565Z,4.30
2022-12-24T00:30:26.541Z,3.60
2022-12-24T00:31:26.648Z,4.40
2022-12-24T00:32:26.508Z,3.50
2022-12-24T00:33:26.471Z,3.80
2022-12-24T00:34:26.459Z,3.30
2022-12-24T00:35:26.435Z,3.60
2022-12-24T00:36:26.413Z,3.70
2022-12-24T00:37:26.423Z,4.00
2022-12-24T00:38:26.370Z,3.90
2022-12-24T00:39:26.354Z,3.80
2022-12-24T00:40:26.336Z,3.90
2022-12-24T00:41:26.625Z,3.20
2022-12-24T00:42:26.291Z,3.30
2022-12-24T00:43:26.268Z,3.90
2022-12-24T00:44:26.249Z,3.90
2022-12-24T00:45:26.225Z,4.90
2022-12-24T00:46:26.352Z,3.40
2022-12-24T00:47:26.186Z,3.90
2022-12-24T00:48:26.163Z,3.30
2022-12-24T00:49:26.145Z,3.70
2022-12-24T00:50:26.120Z,3.60
2022-12-24T00:51:26.200Z,4.20
2022-12-24T00:52:26.087Z,4.40
2022-12-24T00:53:26.090Z,4.10
2022-12-24T00:54:26.033Z,4.20
2022-12-24T00:55:26.015Z,3.90
2022-12-24T00:56:25.995Z,4.30
2022-12-24T00:57:25.974Z,4.20
2022-12-24T00:58:25.951Z,4.20
2022-12-24T00:59:25.935Z,4.40
2022-12-24T01:00:25.908Z,3.60
2022-12-24T01:01:26.024Z,4.40
2022-12-24T01:02:26.113Z,4.20
2022-12-24T01:03:25.875Z,4.30
2022-12-24T01:04:25.818Z,4.40
2022-12-24T01:05:25.806Z,4.00
2022-12-24T01:06:25.782Z,4.50
2022-12-24T01:07:25.758Z,3.70
2022-12-24T01:08:25.755Z,4.70
2022-12-24T01:09:25.741Z,4.50
2022-12-24T01:10:25.699Z,5.60
2022-12-24T01:11:25.684Z,4.90
2022-12-24T01:12:25.657Z,5.00
2022-12-24T01:13:25.636Z,4.40
2022-12-24T01:14:25.613Z,6.00
2022-12-24T01:15:25.591Z,5.20
2022-12-24T01:16:25.652Z,6.90
2022-12-24T01:17:25.552Z,5.00
2022-12-24T01:18:25.527Z,6.00
2022-12-24T01:19:25.508Z,6.00
2022-12-24T01:20:25.485Z,5.90
2022-12-24T01:21:25.472Z,5.40
2022-12-24T01:22:25.444Z,5.10
2022-12-24T01:23:25.427Z,5.10
2022-12-24T01:24:25.399Z,5.30
2022-12-24T01:25:25.409Z,5.80
2022-12-24T01:26:25.365Z,6.80
2022-12-24T01:27:25.336Z,5.60
2022-12-24T01:28:25.321Z,5.70
2022-12-24T01:29:25.295Z,4.80
2022-12-24T01:30:25.279Z,5.40
2022-12-24T01:31:25.314Z,4.80
2022-12-24T01:32:25.249Z,6.40
2022-12-24T01:33:25.209Z,4.60
2022-12-24T01:34:25.194Z,5.80
2022-12-24T01:35:25.173Z,6.10
2022-12-24T01:36:25.155Z,5.30
2022-12-24T01:37:25.128Z,5.00
2022-12-24T01:38:25.107Z,5.90
2022-12-24T01:39:25.092Z,6.20
2022-12-24T01:40:25.064Z,5.30
2022-12-24T01:41:25.067Z,4.90
2022-12-24T01:42:25.031Z,6.30
2022-12-24T01:43:25.017Z,5.50
2022-12-24T01:44:28.431Z,4.90
2022-12-24T01:45:24.956Z,5.20
2022-12-24T01:46:25.043Z,6.20
2022-12-24T01:47:24.919Z,5.60
2022-12-24T01:48:24.898Z,5.80
2022-12-24T01:49:24.875Z,4.70
2022-12-24T01:50:24.859Z,5.20
2022-12-24T01:51:24.837Z,5.30
2022-12-24T01:52:24.814Z,5.30
2022-12-24T01:53:24.809Z,6.50
2022-12-24T01:54:24.780Z,5.50
2022-12-24T01:55:24.752Z,5.70
2022-12-24T01:56:24.761Z,5.50
2022-12-24T01:57:24.725Z,5.90
2022-12-24T01:58:24.687Z,6.30
2022-12-24T01:59:24.722Z,5.20
2022-12-24T02:00:24.656Z,5.40
2022-12-24T02:01:24.741Z,6.20
2022-12-24T02:02:24.804Z,6.20
2022-12-24T02:03:24.626Z,5.60
2022-12-24T02:04:24.566Z,5.80
2022-12-24T02:05:24.536Z,5.90
2022-12-24T02:06:24.516Z,6.30
2022-12-24T02:07:24.512Z,5.40
2022-12-24T02:08:24.478Z,6.20
2022-12-24T02:09:24.456Z,6.00
2022-12-24T02:10:24.441Z,6.50
2022-12-24T02:11:24.422Z,5.90
2022-12-24T02:12:24.393Z,5.90
2022-12-24T02:13:24.395Z,6.50
2022-12-24T02:14:24.347Z,6.40
2022-12-24T02:15:24.327Z,6.80
2022-12-24T02:16:24.418Z,6.00
2022-12-24T02:17:24.288Z,6.40
2022-12-24T02:18:24.267Z,5.90
2022-12-24T02:19:24.243Z,5.90
2022-12-24T02:20:24.230Z,6.10
2022-12-24T02:21:24.204Z,5.40
2022-12-24T02:22:24.189Z,6.40
2022-12-24T02:23:24.160Z,6.40
2022-12-24T02:24:24.141Z,7.10
2022-12-24T02:25:24.121Z,6.10
2022-12-24T02:26:24.101Z,6.10
2022-12-24T02:27:24.109Z,5.80
2022-12-24T02:28:24.058Z,6.40
2022-12-24T02:29:24.055Z,5.50
2022-12-24T02:30:24.016Z,6.60
2022-12-24T02:31:24.023Z,6.00
2022-12-24T02:32:23.984Z,6.50
2022-12-24T02:33:23.950Z,5.80
2022-12-24T02:34:23.935Z,5.90
2022-12-24T02:35:23.913Z,7.20
2022-12-24T02:36:23.893Z,6.10
2022-12-24T02:37:23.868Z,6.00
2022-12-24T02:38:23.848Z,6.50
2022-12-24T02:39:23.828Z,5.20
2022-12-24T02:40:23.815Z,6.00
2022-12-24T02:41:23.787Z,5.90
2022-12-24T02:42:23.768Z,6.70
2022-12-24T02:43:23.737Z,5.60
2022-12-24T02:44:23.726Z,6.10
2022-12-24T02:45:23.728Z,6.00
2022-12-24T02:46:23.713Z,6.40
2022-12-24T02:47:23.667Z,6.50
2022-12-24T02:48:23.646Z,5.90
2022-12-24T02:49:23.617Z,5.50
2022-12-24T02:50:23.597Z,6.80
2022-12-24T02:51:23.567Z,6.00
2022-12-24T02:52:23.553Z,5.50
2022-12-24T02:53:23.527Z,6.00
2022-12-24T02:54:23.514Z,5.90
2022-12-24T02:55:23.494Z,5.50
2022-12-24T02:56:23.477Z,5.00
2022-12-24T02:57:23.448Z,6.50
2022-12-24T02:58:23.427Z,6.20
2022-12-24T02:59:23.405Z,6.30
2022-12-24T03:00:23.469Z,6.70
2022-12-24T03:01:23.540Z,6.50
2022-12-24T03:02:23.498Z,5.80
2022-12-24T03:03:23.321Z,6.00
2022-12-24T03:04:23.297Z,6.20
2022-12-24T03:05:23.283Z,6.80
2022-12-24T03:06:23.265Z,5.30
2022-12-24T03:07:23.237Z,6.40
2022-12-24T03:08:23.219Z,5.60
2022-12-24T03:09:23.196Z,6.00
2022-12-24T03:10:23.179Z,5.70
2022-12-24T03:11:23.147Z,6.20
2022-12-24T03:12:23.155Z,6.20
2022-12-24T03:13:23.111Z,5.60
2022-12-24T03:14:23.096Z,6.20
2022-12-24T03:15:23.063Z,5.90
2022-12-24T03:16:23.093Z,7.20
2022-12-24T03:17:23.041Z,7.40
2022-12-24T03:18:23.000Z,6.00
2022-12-24T03:19:22.990Z,7.80
2022-12-24T03:20:22.965Z,6.70
2022-12-24T03:21:22.944Z,5.90
2022-12-24T03:22:22.932Z,6.90
2022-12-24T03:23:22.897Z,6.20
2022-12-24T03:24:22.892Z,6.40
2022-12-24T03:25:22.857Z,6.90
2022-12-24T03:26:22.840Z,5.90
2022-12-24T03:27:22.813Z,6.90
2022-12-24T03:28:22.790Z,6.70
2022-12-24T03:29:22.775Z,6.50
2022-12-24T03:30:22.755Z,6.60
2022-12-24T03:31:22.795Z,6.20
2022-12-24T03:32:22.712Z,6.20
2022-12-24T03:33:22.705Z,6.00
2022-12-24T03:34:22.666Z,7.00
2022-12-24T03:35:22.640Z,6.60
2022-12-24T03:36:22.625Z,6.70
2022-12-24T03:37:22.613Z,6.20
2022-12-24T03:38:22.590Z,6.50
2022-12-24T03:39:22.587Z,6.80
2022-12-24T03:40:22.541Z,7.30
2022-12-24T03:41:22.515Z,7.00
2022-12-24T03:42:22.498Z,5.90
2022-12-24T03:43:22.473Z,6.20
2022-12-24T03:44:22.461Z,5.90
2022-12-24T03:45:22.438Z,5.80
2022-12-24T03:46:22.475Z,6.90
2022-12-24T03:47:22.407Z,7.00
2022-12-24T03:48:26.041Z,5.90
2022-12-24T03:49:22.367Z,5.70
2022-12-24T03:50:22.370Z,6.40
2022-12-24T03:51:22.315Z,7.30
2022-12-24T03:52:22.287Z,6.30
2022-12-24T03:53:22.269Z,6.20
2022-12-24T03:54:22.246Z,5.90
2022-12-24T03:55:22.233Z,6.00
2022-12-24T03:56:22.198Z,6.20
2022-12-24T03:57:22.189Z,6.40
2022-12-24T03:58:22.172Z,5.90
2022-12-24T03:59:22.141Z,6.20
2022-12-24T04:00:22.142Z,6.40
2022-12-24T04:01:22.364Z,6.20
2022-12-24T04:02:22.225Z,6.70
2022-12-24T04:03:22.180Z,6.30
2022-12-24T04:04:22.043Z,6.80
2022-12-24T04:05:22.034Z,6.70
2022-12-24T04:06:21.997Z,6.10
2022-12-24T04:07:21.974Z,5.90
2022-12-24T04:08:21.951Z,5.60
2022-12-24T04:09:21.927Z,6.70
2022-12-24T04:10:21.958Z,6.20
2022-12-24T04:11:21.925Z,6.40
2022-12-24T04:12:21.868Z,5.90
2022-12-24T04:13:21.846Z,6.20
2022-12-24T04:14:21.826Z,5.90
2022-12-24T04:15:21.797Z,6.40
2022-12-24T04:16:21.841Z,5.80
2022-12-24T04:17:21.771Z,5.60
2022-12-24T04:18:21.745Z,5.20
2022-12-24T04:19:21.728Z,5.90
2022-12-24T04:20:21.711Z,6.30
2022-12-24T04:21:21.705Z,6.40
2022-12-24T04:22:21.673Z,6.20
2022-12-24T04:23:21.659Z,6.30
2022-12-24T04:24:21.610Z,6.00
2022-12-24T04:25:21.907Z,6.20
2022-12-24T04:26:21.576Z,6.10
2022-12-24T04:27:25.335Z,6.30
2022-12-24T04:28:21.526Z,6.20
2022-12-24T04:29:21.510Z,5.70
2022-12-24T04:30:21.486Z,6.30
2022-12-24T04:31:21.553Z,7.50
2022-12-24T04:32:21.482Z,6.60
2022-12-24T04:33:21.425Z,6.00
2022-12-24T04:34:21.406Z,6.40
2022-12-24T04:35:21.383Z,5.90
2022-12-24T04:36:21.360Z,6.40
2022-12-24T04:37:21.429Z,6.10
2022-12-24T04:38:21.332Z,6.50
2022-12-24T04:39:21.296Z,6.50
2022-12-24T04:40:21.277Z,6.60
2022-12-24T04:41:24.450Z,6.60
2022-12-24T04:42:21.235Z,5.50
2022-12-24T04:43:21.209Z,6.80
2022-12-24T04:44:21.192Z,7.00
2022-12-24T04:45:21.164Z,6.60
2022-12-24T04:46:21.223Z,6.00
2022-12-24T04:47:21.124Z,6.90
2022-12-24T04:48:21.110Z,5.30
2022-12-24T04:49:21.081Z,5.70
2022-12-24T04:50:21.075Z,6.80
2022-12-24T04:51:21.049Z,6.70
2022-12-24T04:52:21.024Z,6.30
2022-12-24T04:53:21.015Z,6.20
2022-12-24T04:54:21.015Z,6.40
2022-12-24T04:55:20.958Z,7.70
2022-12-24T04:56:20.935Z,6.90
2022-12-24T04:57:20.922Z,8.20
2022-12-24T04:58:20.894Z,6.90
2022-12-24T04:59:20.869Z,7.00
2022-12-24T05:00:20.876Z,7.10
2022-12-24T05:01:21.002Z,7.50
2022-12-24T05:02:20.972Z,6.80
2022-12-24T05:03:20.957Z,7.20
2022-12-24T05:04:20.765Z,6.70
2022-12-24T05:05:20.740Z,7.40
2022-12-24T05:06:20.737Z,7.10
2022-12-24T05:07:20.704Z,7.30
2022-12-24T05:08:20.680Z,6.50
2022-12-24T05:09:20.693Z,6.70
2022-12-24T05:10:20.646Z,6.60
2022-12-24T05:11:20.619Z,7.30
2022-12-24T05:12:20.595Z,6.70
2022-12-24T05:13:20.586Z,6.70
2022-12-24T05:14:20.563Z,6.70
2022-12-24T05:15:20.537Z,7.10
2022-12-24T05:16:20.642Z,7.10
2022-12-24T05:17:20.488Z,7.00
2022-12-24T05:18:20.475Z,7.70
2022-12-24T05:19:20.450Z,6.90
2022-12-24T05:20:20.432Z,7.60
2022-12-24T05:21:20.402Z,7.10
2022-12-24T05:22:20.386Z,7.20
2022-12-24T05:23:20.386Z,7.70
2022-12-24T05:24:20.340Z,7.20
2022-12-24T05:25:20.346Z,6.90
2022-12-24T05:26:20.304Z,7.00
2022-12-24T05:27:20.280Z,7.10
2022-12-24T05:28:20.262Z,7.90
2022-12-24T05:29:20.245Z,9.20
2022-12-24T05:30:20.231Z,7.40
2022-12-24T05:31:20.290Z,6.80
2022-12-24T05:32:20.170Z,7.80
2022-12-24T05:33:20.153Z,6.90
2022-12-24T05:34:20.129Z,7.10
2022-12-24T05:35:20.125Z,7.80
2022-12-24T05:36:20.089Z,7.80
2022-12-24T05:37:20.067Z,8.40
2022-12-24T05:38:20.056Z,8.80
2022-12-24T05:39:20.035Z,7.70
2022-12-24T05:40:20.007Z,7.60
2022-12-24T05:41:20.005Z,9.50
2022-12-24T05:42:19.956Z,7.80
2022-12-24T05:43:19.943Z,7.90
2022-12-24T05:44:19.917Z,7.70
2022-12-24T05:45:19.914Z,8.20
2022-12-24T05:46:20.026Z,7.70
2022-12-24T05:47:19.854Z,9.00
2022-12-24T05:48:19.838Z,8.40
2022-12-24T05:49:19.819Z,8.00
2022-12-24T05:50:19.786Z,8.50
2022-12-24T05:51:19.907Z,8.60
2022-12-24T05:52:19.752Z,8.00
2022-12-24T05:53:19.735Z,8.60
2022-12-24T05:54:19.707Z,8.00
2022-12-24T05:55:19.696Z,8.90
2022-12-24T05:56:19.663Z,7.70
2022-12-24T05:57:19.671Z,8.00
2022-12-24T05:58:19.620Z,7.30
2022-12-24T05:59:19.604Z,8.70
2022-12-24T06:00:19.591Z,8.60
2022-12-24T06:01:19.695Z,7.50
2022-12-24T06:02:19.584Z,8.20
2022-12-24T06:03:19.531Z,8.60
2022-12-24T06:04:24.716Z,8.40
2022-12-24T06:05:19.475Z,6.90
2022-12-24T06:06:19.465Z,7.60
2022-12-24T06:07:19.426Z,8.90
2022-12-24T06:08:19.417Z,8.30
2022-12-24T06:09:19.396Z,7.50
2022-12-24T06:10:19.374Z,7.30
2022-12-24T06:11:19.356Z,8.00
2022-12-24T06:12:19.326Z,8.90
2022-12-24T06:13:19.326Z,7.50
2022-12-24T06:14:19.282Z,8.70
2022-12-24T06:15:23.846Z,8.70
2022-12-24T06:16:19.346Z,8.10
2022-12-24T06:17:19.221Z,8.50
2022-12-24T06:18:19.192Z,7.70
2022-12-24T06:19:19.181Z,8.00
2022-12-24T06:20:19.153Z,8.80
2022-12-24T06:21:19.146Z,7.80
2022-12-24T06:22:19.111Z,8.10
2022-12-24T06:23:19.112Z,7.70
2022-12-24T06:24:19.097Z,7.40
2022-12-24T06:25:19.440Z,8.50
2022-12-24T06:26:19.024Z,7.90
2022-12-24T06:27:19.009Z,7.40
2022-12-24T06:28:18.993Z,8.80
2022-12-24T06:29:18.985Z,8.00
2022-12-24T06:30:19.047Z,8.20
2022-12-24T06:31:19.012Z,8.70
2022-12-24T06:32:18.907Z,7.90
2022-12-24T06:33:18.883Z,9.50
2022-12-24T06:34:18.859Z,7.80
2022-12-24T06:35:18.838Z,8.90
2022-12-24T06:36:18.818Z,8.20
2022-12-24T06:37:18.798Z,8.40
2022-12-24T06:38:18.774Z,8.20
2022-12-24T06:39:18.755Z,7.30
2022-12-24T06:40:18.729Z,8.50
2022-12-24T06:41:18.714Z,9.20
2022-12-24T06:42:18.688Z,7.60
2022-12-24T06:43:18.664Z,8.90
2022-12-24T06:44:18.645Z,7.30
2022-12-24T06:45:18.645Z,8.00
2022-12-24T06:46:18.763Z,8.80
2022-12-24T06:47:18.583Z,7.30
2022-12-24T06:48:18.588Z,7.60
2022-12-24T06:49:18.538Z,8.70
2022-12-24T06:50:18.515Z,7.30
2022-12-24T06:51:18.496Z,7.50
2022-12-24T06:52:18.470Z,7.20
2022-12-24T06:53:18.450Z,8.00
2022-12-24T06:54:18.442Z,7.90
2022-12-24T06:55:18.410Z,7.60
2022-12-24T06:56:18.390Z,7.30
2022-12-24T06:57:18.382Z,9.50
2022-12-24T06:58:18.347Z,7.60
2022-12-24T06:59:18.325Z,7.10
2022-12-24T07:00:18.303Z,7.90
2022-12-24T07:01:18.461Z,8.50
2022-12-24T07:02:18.440Z,7.00
2022-12-24T07:03:18.274Z,7.70
2022-12-24T07:04:20.719Z,7.10
2022-12-24T07:05:18.200Z,8.00
2022-12-24T07:06:18.180Z,8.00
2022-12-24T07:07:18.152Z,7.50
2022-12-24T07:08:18.131Z,7.90
2022-12-24T07:09:18.113Z,6.30
2022-12-24T07:10:18.093Z,8.40
2022-12-24T07:11:18.080Z,7.90
2022-12-24T07:12:18.087Z,8.70
2022-12-24T07:13:18.027Z,7.90
2022-12-24T07:14:18.043Z,7.40
2022-12-24T07:15:18.052Z,7.90
2022-12-24T07:16:18.189Z,7.30
2022-12-24T07:17:18.211Z,7.80
2022-12-24T07:18:17.924Z,7.30
2022-12-24T07:19:17.906Z,8.00
2022-12-24T07:20:17.884Z,7.80
2022-12-24T07:21:17.867Z,8.10
2022-12-24T07:22:17.834Z,7.80
2022-12-24T07:23:17.816Z,7.50
2022-12-24T07:24:17.806Z,7.80
2022-12-24T07:25:17.775Z,7.60
2022-12-24T07:26:17.749Z,7.90
2022-12-24T07:27:17.727Z,8.00
2022-12-24T07:28:22.328Z,7.80
2022-12-24T07:29:17.689Z,7.50
2022-12-24T07:30:17.668Z,8.30
2022-12-24T07:31:17.783Z,7.30
2022-12-24T07:32:17.621Z,7.70
2022-12-24T07:33:17.632Z,7.10
2022-12-24T07:34:17.581Z,8.60
2022-12-24T07:35:17.563Z,8.40
2022-12-24T07:36:17.535Z,7.70
2022-12-24T07:37:17.521Z,7.80
2022-12-24T07:38:17.496Z,8.10
2022-12-24T07:39:17.478Z,8.40
2022-12-24T07:40:17.453Z,7.40
2022-12-24T07:41:17.435Z,7.50
2022-12-24T07:42:17.411Z,8.00
2022-12-24T07:43:17.389Z,9.10
2022-12-24T07:44:17.386Z,7.50
2022-12-24T07:45:17.356Z,7.90
2022-12-24T07:46:17.412Z,7.30
2022-12-24T07:47:17.305Z,8.20
2022-12-24T07:48:17.290Z,9.10
2022-12-24T07:49:17.289Z,8.20
2022-12-24T07:50:17.248Z,8.10
2022-12-24T07:51:17.229Z,7.10
2022-12-24T07:52:17.196Z,8.10
2022-12-24T07:53:17.187Z,7.20
2022-12-24T07:54:17.157Z,6.90
2022-12-24T07:55:17.139Z,7.80
2022-12-24T07:56:17.120Z,7.30
2022-12-24T07:57:17.097Z,7.60
2022-12-24T07:58:17.079Z,8.20
2022-12-24T07:59:17.051Z,7.50
2022-12-24T08:00:17.040Z,7.00
2022-12-24T08:01:17.080Z,7.60
2022-12-24T08:02:18.740Z,6.90
2022-12-24T08:03:17.140Z,7.60
2022-12-24T08:04:16.941Z,7.00
2022-12-24T08:05:16.956Z,7.70
2022-12-24T08:06:16.913Z,6.90
2022-12-24T08:07:16.882Z,7.40
2022-12-24T08:08:16.864Z,6.60
2022-12-24T08:09:16.855Z,7.30
2022-12-24T08:10:16.820Z,6.20
2022-12-24T08:11:16.802Z,7.10
2022-12-24T08:12:16.772Z,7.40
2022-12-24T08:13:16.776Z,6.70
2022-12-24T08:14:16.729Z,7.20
2022-12-24T08:15:16.732Z,7.30
2022-12-24T08:16:16.750Z,6.80
2022-12-24T08:17:16.674Z,6.50
2022-12-24T08:18:16.658Z,7.30
2022-12-24T08:19:16.638Z,6.60
2022-12-24T08:20:16.616Z,6.90
2022-12-24T08:21:16.616Z,7.30
2022-12-24T08:22:16.570Z,7.50
2022-12-24T08:23:16.562Z,7.60
2022-12-24T08:24:16.535Z,6.70
2022-12-24T08:25:16.509Z,7.90
2022-12-24T08:26:16.520Z,7.00
2022-12-24T08:27:16.458Z,7.60
2022-12-24T08:28:16.436Z,7.60
2022-12-24T08:29:16.423Z,6.90
2022-12-24T08:30:21.026Z,7.10
2022-12-24T08:31:16.435Z,6.90
2022-12-24T08:32:16.358Z,7.20
2022-12-24T08:33:16.347Z,7.00
2022-12-24T08:34:16.317Z,7.30
2022-12-24T08:35:16.308Z,6.80
2022-12-24T08:36:16.269Z,7.50
2022-12-24T08:37:16.281Z,6.60
2022-12-24T08:38:16.227Z,7.20
2022-12-24T08:39:16.214Z,6.90
2022-12-24T08:40:16.181Z,7.40
2022-12-24T08:41:16.168Z,7.30
2022-12-24T08:42:16.232Z,7.30
2022-12-24T08:43:16.129Z,6.80
2022-12-24T08:44:16.110Z,6.80
2022-12-24T08:45:16.085Z,7.00
2022-12-24T08:46:16.123Z,7.50
2022-12-24T08:47:16.041Z,6.80
2022-12-24T08:48:16.017Z,7.60
2022-12-24T08:49:16.008Z,7.10
2022-12-24T08:50:15.978Z,8.10
2022-12-24T08:51:15.956Z,7.00
2022-12-24T08:52:15.931Z,7.90
2022-12-24T08:53:15.958Z,7.60
2022-12-24T08:54:15.908Z,7.40
2022-12-24T08:55:15.884Z,6.90
2022-12-24T08:56:15.853Z,7.00
2022-12-24T08:57:15.843Z,6.90
2022-12-24T08:58:15.809Z,7.40
2022-12-24T08:59:15.792Z,7.50
2022-12-24T09:00:15.780Z,6.80
2022-12-24T09:01:15.903Z,7.50
2022-12-24T09:02:15.860Z,6.50
2022-12-24T09:03:15.819Z,6.60
2022-12-24T09:04:15.691Z,6.50
2022-12-24T09:05:15.676Z,6.50
2022-12-24T09:06:15.653Z,6.20
2022-12-24T09:07:15.628Z,6.40
2022-12-24T09:08:15.604Z,6.40
2022-12-24T09:09:15.613Z,7.60
2022-12-24T09:10:15.575Z,6.80
2022-12-24T09:11:15.549Z,6.70
2022-12-24T09:12:15.530Z,6.10
2022-12-24T09:13:15.510Z,6.50
2022-12-24T09:14:15.486Z,6.80
2022-12-24T09:15:15.477Z,6.90
2022-12-24T09:16:15.510Z,7.40
2022-12-24T09:17:15.434Z,6.50
2022-12-24T09:18:15.407Z,6.90
2022-12-24T09:19:15.389Z,6.30
2022-12-24T09:20:15.378Z,6.60
2022-12-24T09:21:15.350Z,7.30
2022-12-24T09:22:15.327Z,6.30
2022-12-24T09:23:15.314Z,6.60
2022-12-24T09:24:15.288Z,7.10
2022-12-24T09:25:15.293Z,7.30
2022-12-24T09:26:15.247Z,6.70
2022-12-24T09:27:15.234Z,6.90
2022-12-24T09:28:15.209Z,6.40
2022-12-24T09:29:15.189Z,6.90
2022-12-24T09:30:15.174Z,6.80
2022-12-24T09:31:15.205Z,6.80
2022-12-24T09:32:15.248Z,6.90
2022-12-24T09:33:15.112Z,6.70
2022-12-24T09:34:15.093Z,6.00
2022-12-24T09:35:15.101Z,6.10
2022-12-24T09:36:15.052Z,5.60
2022-12-24T09:37:15.041Z,6.60
2022-12-24T09:38:15.006Z,6.80
2022-12-24T09:39:14.993Z,6.90
2022-12-24T09:40:15.070Z,6.90
2022-12-24T09:41:14.970Z,6.70
2022-12-24T09:42:14.946Z,7.00
2022-12-24T09:43:14.909Z,6.00
2022-12-24T09:44:14.887Z,6.70
2022-12-24T09:45:14.884Z,6.70
2022-12-24T09:46:15.002Z,6.30
2022-12-24T09:47:14.832Z,6.10
2022-12-24T09:48:14.814Z,6.20
2022-12-24T09:49:14.803Z,6.20
2022-12-24T09:50:14.779Z,6.10
2022-12-24T09:51:14.760Z,6.80
2022-12-24T09:52:14.749Z,5.90
2022-12-24T09:53:14.725Z,5.60
2022-12-24T09:54:14.699Z,6.10
2022-12-24T09:55:14.682Z,5.90
2022-12-24T09:56:14.669Z,6.70
2022-12-24T09:57:14.664Z,6.30
2022-12-24T09:58:14.631Z,6.60
2022-12-24T09:59:14.613Z,6.60
2022-12-24T10:00:14.592Z,6.70
2022-12-24T10:01:14.685Z,5.60
2022-12-24T10:02:14.702Z,7.60
2022-12-24T10:03:14.618Z,6.10
2022-12-24T10:04:14.521Z,6.60
2022-12-24T10:05:14.498Z,7.20
2022-12-24T10:06:14.480Z,6.50
2022-12-24T10:07:14.456Z,5.40
2022-12-24T10:08:14.446Z,5.90
2022-12-24T10:09:14.421Z,6.60
2022-12-24T10:10:14.409Z,6.60
2022-12-24T10:11:14.392Z,6.50
2022-12-24T10:12:14.367Z,6.00
2022-12-24T10:13:14.372Z,6.20
2022-12-24T10:14:14.328Z,6.00
2022-12-24T10:15:14.308Z,6.10
2022-12-24T10:16:14.337Z,6.20
2022-12-24T10:17:14.317Z,6.40
2022-12-24T10:18:14.259Z,5.80
2022-12-24T10:19:14.242Z,5.20
2022-12-24T10:20:14.224Z,6.00
2022-12-24T10:21:14.207Z,6.10
2022-12-24T10:22:14.184Z,5.50
2022-12-24T10:23:14.158Z,6.10
2022-12-24T10:24:14.142Z,5.90
2022-12-24T10:25:14.124Z,5.90
2022-12-24T10:26:14.119Z,5.70
2022-12-24T10:27:14.092Z,5.70
2022-12-24T10:28:14.066Z,6.40
2022-12-24T10:29:14.070Z,5.70
2022-12-24T10:30:20.730Z,6.00
2022-12-24T10:31:14.110Z,5.40
2022-12-24T10:32:13.990Z,7.20
2022-12-24T10:33:13.969Z,6.10
2022-12-24T10:34:13.955Z,6.60
2022-12-24T10:35:13.944Z,6.70
2022-12-24T10:36:13.915Z,6.80
2022-12-24T10:37:13.889Z,6.00
2022-12-24T10:38:13.877Z,6.60
2022-12-24T10:39:13.853Z,7.00
2022-12-24T10:40:13.833Z,6.70
2022-12-24T10:41:13.819Z,6.40
2022-12-24T10:42:13.805Z,7.60
2022-12-24T10:43:13.772Z,7.20
2022-12-24T10:44:13.748Z,6.20
2022-12-24T10:45:13.757Z,7.10
2022-12-24T10:46:13.752Z,6.20
2022-12-24T10:47:13.689Z,6.90
2022-12-24T10:48:13.672Z,6.00
2022-12-24T10:49:13.649Z,7.30
2022-12-24T10:50:13.638Z,6.60
2022-12-24T10:51:13.611Z,5.40
2022-12-24T10:52:13.598Z,6.40
2022-12-24T10:53:13.582Z,6.80
2022-12-24T10:54:13.561Z,6.90
2022-12-24T10:55:13.537Z,6.40
2022-12-24T10:56:13.535Z,6.60
2022-12-24T10:57:13.496Z,7.10
2022-12-24T10:58:13.484Z,6.60
2022-12-24T10:59:13.454Z,6.40
2022-12-24T11:00:13.436Z,6.60
2022-12-24T11:01:13.564Z,6.70
2022-12-24T11:02:13.556Z,6.90
2022-12-24T11:03:13.500Z,6.80
2022-12-24T11:04:13.400Z,6.90
2022-12-24T11:05:13.334Z,6.00
2022-12-24T11:06:13.329Z,6.40
2022-12-24T11:07:13.301Z,6.60
2022-12-24T11:08:13.272Z,7.90
2022-12-24T11:09:13.279Z,7.30
2022-12-24T11:10:13.241Z,7.00
2022-12-24T11:11:13.220Z,6.10
2022-12-24T11:12:13.197Z,6.20
2022-12-24T11:13:36.723Z,6.80
2022-12-24T11:14:13.160Z,6.60
2022-12-24T11:15:13.151Z,7.20
2022-12-24T11:16:13.207Z,6.70
2022-12-24T11:17:13.117Z,6.50
2022-12-24T11:18:13.085Z,6.20
2022-12-24T11:19:13.059Z,6.90
2022-12-24T11:20:13.043Z,7.20
2022-12-24T11:21:13.022Z,7.40
2022-12-24T11:22:13.009Z,6.70
2022-12-24T11:23:12.980Z,7.10
2022-12-24T11:24:12.967Z,6.70
2022-12-24T11:25:12.948Z,6.70
2022-12-24T11:26:12.930Z,7.10
2022-12-24T11:27:12.906Z,6.70
2022-12-24T11:28:12.905Z,8.20
2022-12-24T11:29:12.871Z,7.50
2022-12-24T11:30:12.879Z,6.90
2022-12-24T11:31:12.874Z,6.90
2022-12-24T11:32:12.819Z,7.10
2022-12-24T11:33:12.818Z,8.00
2022-12-24T11:34:12.792Z,6.90
2022-12-24T11:35:12.759Z,6.40
2022-12-24T11:36:12.749Z,5.60
2022-12-24T11:37:15.154Z,6.40
2022-12-24T11:38:12.704Z,6.40
2022-12-24T11:39:12.683Z,5.90
2022-12-24T11:40:12.672Z,6.50
2022-12-24T11:41:12.682Z,7.00
2022-12-24T11:42:12.634Z,6.80
2022-12-24T11:43:14.818Z,6.70
2022-12-24T11:44:12.597Z,5.60
2022-12-24T11:45:12.574Z,6.80
2022-12-24T11:46:12.615Z,7.00
2022-12-24T11:47:12.535Z,7.10
2022-12-24T11:48:12.526Z,7.60
2022-12-24T11:49:12.555Z,6.70
2022-12-24T11:50:18.691Z,7.40
2022-12-24T11:51:12.461Z,6.30
2022-12-24T11:52:12.488Z,7.10
2022-12-24T11:53:12.424Z,6.10
2022-12-24T11:54:12.407Z,6.90
2022-12-24T11:55:16.324Z,7.00
2022-12-24T11:56:12.361Z,5.90
2022-12-24T11:57:12.343Z,7.20
2022-12-24T11:58:12.330Z,6.90
2022-12-24T11:59:12.304Z,6.60
2022-12-24T12:00:12.285Z,6.30
2022-12-24T12:01:15.868Z,7.40
2022-12-24T12:02:12.354Z,6.20
2022-12-24T12:03:12.275Z,6.20
2022-12-24T12:04:12.294Z,6.50
2022-12-24T12:05:12.224Z,6.70
2022-12-24T12:06:12.177Z,6.90
2022-12-24T12:07:15.116Z,6.60
2022-12-24T12:08:12.128Z,6.20
2022-12-24T12:09:12.104Z,6.10
2022-12-24T12:10:12.126Z,6.20
2022-12-24T12:11:12.067Z,6.40
2022-12-24T12:12:12.048Z,6.50
2022-12-24T12:13:15.437Z,6.40
2022-12-24T12:14:12.011Z,6.70
2022-12-24T12:15:11.981Z,6.80
2022-12-24T12:16:12.017Z,7.00
2022-12-24T12:17:11.955Z,7.40
2022-12-24T12:18:11.950Z,5.40
2022-12-24T12:19:15.271Z,6.70
2022-12-24T12:20:11.958Z,6.50
2022-12-24T12:21:11.889Z,6.20
2022-12-24T12:22:11.853Z,6.30
2022-12-24T12:23:11.824Z,6.30
2022-12-24T12:24:11.811Z,6.50
2022-12-24T12:25:11.783Z,6.90
2022-12-24T12:26:11.780Z,7.10
2022-12-24T12:27:11.741Z,7.80
2022-12-24T12:28:11.736Z,6.70
2022-12-24T12:29:11.723Z,7.00
2022-12-24T12:30:11.705Z,7.20
2022-12-24T12:31:16.052Z,7.30
2022-12-24T12:32:11.747Z,6.70
2022-12-24T12:33:11.670Z,7.00
2022-12-24T12:34:11.615Z,6.80
2022-12-24T12:35:11.596Z,7.50
2022-12-24T12:36:11.567Z,6.20
2022-12-24T12:37:14.864Z,6.20
2022-12-24T12:38:11.529Z,7.40
2022-12-24T12:39:11.512Z,7.10
2022-12-24T12:40:11.612Z,7.00
2022-12-24T12:41:11.471Z,6.20
2022-12-24T12:42:11.454Z,6.60
2022-12-24T12:43:14.455Z,6.40
2022-12-24T12:44:11.410Z,6.50
2022-12-24T12:45:11.383Z,6.80
2022-12-24T12:46:11.426Z,6.20
2022-12-24T12:47:11.463Z,6.70
2022-12-24T12:48:11.325Z,6.10
2022-12-24T12:49:11.315Z,7.10
2022-12-24T12:50:11.408Z,6.00
2022-12-24T12:51:11.298Z,6.30
2022-12-24T12:52:11.279Z,7.30
2022-12-24T12:53:11.252Z,6.90
2022-12-24T12:54:11.208Z,6.80
2022-12-24T12:55:11.201Z,6.80
2022-12-24T12:56:11.188Z,6.70
2022-12-24T12:57:11.153Z,6.80
2022-12-24T12:58:11.134Z,5.90
2022-12-24T12:59:11.130Z,6.20
2022-12-24T13:00:11.272Z,6.10
2022-12-24T13:01:11.268Z,6.30
2022-12-24T13:02:11.193Z,6.10
2022-12-24T13:03:11.187Z,6.10
2022-12-24T13:04:11.016Z,6.50
2022-12-24T13:05:10.994Z,6.70
2022-12-24T13:06:10.988Z,7.10
2022-12-24T13:07:10.954Z,6.50
2022-12-24T13:08:10.943Z,6.10
2022-12-24T13:09:10.945Z,6.30
2022-12-24T13:10:10.898Z,7.30
2022-12-24T13:11:10.876Z,6.30
2022-12-24T13:12:10.863Z,6.20
2022-12-24T13:13:15.436Z,6.80
2022-12-24T13:14:10.821Z,7.70
2022-12-24T13:15:10.795Z,7.30
2022-12-24T13:16:10.846Z,6.80
2022-12-24T13:17:10.757Z,6.10
2022-12-24T13:18:10.744Z,7.50